KHAE

Details ICAO KHAE
Name HANNIBAL RGNL
Region United States
Timezone America/Chicago (UTC-5.0)
Plans Departing 12
Arriving 1
Stats Elevation 773 ft / 236 m (AMSL)
Location 39.725165° -91.443849°
Runways 1
Magnetic Variation 0.739° W
Sunrise 2018-05-21 10:47:39 UTC / 2018-05-21 05:47:39 Local
Sunset 2018-05-22 01:19:58 UTC / 2018-05-21 20:19:58 Local
Advertisement - Login to hide

Runways

ID Width Length Bearing (true) Bearing (mag) Surface Threshold Offset Overrun Length
17 100 ft / 30 m 4,407 ft / 1,343 m 169.80° 170.54° Concrete 0 ft / 0 m 0 ft / 0 m
35 100 ft / 30 m 4,407 ft / 1,343 m 349.80° 350.54° Concrete 0 ft / 0 m 0 ft / 0 m

Map

Weather


0- 5 10 15 20 25 30 35+ Temperature / ° C

Clouds and Precipitation
Forecast for 2018-05-21 12:00 UTC. Updated 3 minutes ago

Ground ~20,000 ft ~40,000 ft Winds

METAR

KHAE 211035Z AUTO 15004KT 10SM OVC026 18/17 A3002 RMK AO2

TAF

Not found

Frequencies

Recorded 120.77 MHz AWOS 3
Unicom 122.80 MHz CTAF/UNICOM
Warning: Do not use this data for real-world aviation or navigation. No guarantee of current accuracy is given.